createdAt,value
2023-08-28T00:06:33.653Z,2.90
2023-08-28T00:20:33.567Z,3.00
2023-08-28T00:34:33.350Z,3.30
2023-08-28T00:48:33.197Z,3.20
2023-08-28T01:02:33.123Z,3.90
2023-08-28T01:16:32.894Z,4.40
2023-08-28T01:30:32.773Z,4.80
2023-08-28T01:44:32.596Z,5.60
2023-08-28T01:58:32.474Z,6.00
2023-08-28T02:12:32.302Z,5.90
2023-08-28T02:26:32.139Z,6.40
2023-08-28T02:40:31.995Z,6.30
2023-08-28T02:54:31.847Z,6.80
2023-08-28T03:08:31.677Z,6.90
2023-08-28T03:22:31.550Z,7.50
2023-08-28T03:36:31.410Z,7.10
2023-08-28T03:50:31.308Z,7.40
2023-08-28T04:04:31.056Z,8.10
2023-08-28T04:18:30.908Z,9.20
2023-08-28T04:32:30.765Z,9.10
2023-08-28T04:46:30.645Z,9.30
2023-08-28T05:00:31.051Z,9.00
2023-08-28T05:14:30.522Z,8.90
2023-08-28T05:28:30.175Z,9.00
2023-08-28T05:42:29.984Z,9.60
2023-08-28T05:56:29.880Z,10.10
2023-08-28T06:10:29.700Z,8.30
2023-08-28T06:24:29.520Z,8.50
2023-08-28T06:38:29.377Z,8.10
2023-08-28T06:52:29.269Z,9.60
2023-08-28T07:06:29.128Z,8.30
2023-08-28T07:20:28.939Z,7.20
2023-08-28T07:34:28.771Z,6.20
2023-08-28T07:48:28.646Z,6.00
2023-08-28T08:02:28.546Z,3.80
2023-08-28T08:16:28.343Z,3.10
2023-08-28T08:30:28.228Z,2.80
2023-08-28T08:44:28.038Z,4.00
2023-08-28T08:58:27.915Z,3.40
2023-08-28T09:12:27.788Z,3.10
2023-08-28T09:26:27.603Z,3.10
2023-08-28T09:40:27.461Z,3.00
2023-08-28T09:54:27.318Z,3.60
2023-08-28T10:08:27.165Z,3.10
2023-08-28T10:22:27.051Z,2.80
2023-08-28T10:50:26.737Z,2.00
2023-08-28T11:04:26.590Z,1.90
2023-08-28T11:18:26.427Z,1.60
2023-08-28T11:32:26.261Z,1.60
2023-08-28T11:46:26.129Z,1.80
2023-08-28T12:00:25.981Z,1.50
2023-08-28T12:14:25.849Z,1.30
2023-08-28T12:28:25.682Z,1.20
2023-08-28T12:42:25.546Z,1.00
2023-08-28T12:56:25.374Z,1.20
2023-08-28T13:10:25.234Z,1.50
2023-08-28T13:24:41.489Z,1.00
2023-08-28T13:38:25.141Z,1.60
2023-08-28T13:52:25.366Z,0.80
2023-08-28T14:06:24.672Z,0.90
2023-08-28T14:20:24.409Z,0.90
2023-08-28T14:34:24.304Z,1.50
2023-08-28T14:48:24.218Z,1.00
2023-08-28T15:02:24.923Z,0.90
2023-08-28T15:16:23.947Z,0.80
2023-08-28T15:30:23.768Z,0.90
2023-08-28T15:44:23.661Z,0.80
2023-08-28T15:58:23.501Z,0.80
2023-08-28T16:12:23.606Z,0.80
2023-08-28T16:26:23.312Z,0.90
2023-08-28T16:40:23.129Z,0.90
2023-08-28T16:54:22.966Z,1.00
2023-08-28T17:08:22.857Z,0.90
2023-08-28T17:22:22.671Z,1.00
2023-08-28T17:36:22.526Z,0.90
2023-08-28T17:50:22.395Z,1.30
2023-08-28T18:04:22.323Z,1.50
2023-08-28T18:18:22.079Z,1.00
2023-08-28T18:32:21.905Z,0.90
2023-08-28T18:46:21.755Z,1.50
2023-08-28T19:00:21.696Z,1.30
2023-08-28T19:14:21.527Z,1.10
2023-08-28T19:28:21.379Z,1.20
2023-08-28T19:42:21.257Z,1.40
2023-08-28T19:56:21.058Z,1.30
2023-08-28T20:10:20.910Z,1.30
2023-08-28T20:24:20.777Z,1.50
2023-08-28T20:38:20.629Z,2.50
2023-08-28T20:52:20.602Z,1.50
2023-08-28T21:06:20.347Z,1.30
2023-08-28T21:20:20.203Z,1.40
2023-08-28T21:34:20.049Z,1.40
2023-08-28T21:48:19.931Z,1.40
2023-08-28T22:02:19.801Z,1.50
2023-08-28T22:16:19.680Z,1.40
2023-08-28T22:30:19.449Z,1.50
2023-08-28T22:44:19.340Z,1.60
2023-08-28T22:58:19.190Z,1.70
2023-08-28T23:12:19.016Z,1.70
2023-08-28T23:26:18.893Z,1.70
2023-08-28T23:40:18.742Z,1.80
2023-08-28T23:54:18.662Z,1.70
